sensor_id;sensor_type;location;lat;lon;timestamp;pressure;altitude;pressure_sealevel;temperature;humidity
5138;BME280;53959;53.626;11.410;2023-04-06T00:00:38;101454.59;;;1.91;76.61
5138;BME280;53959;53.626;11.410;2023-04-06T00:03:04;101458.13;;;1.92;77.00
5138;BME280;53959;53.626;11.410;2023-04-06T00:05:30;101449.19;;;1.84;76.99
5138;BME280;53959;53.626;11.410;2023-04-06T00:07:57;101446.38;;;1.75;77.04
5138;BME280;53959;53.626;11.410;2023-04-06T00:10:22;101443.75;;;1.75;76.76
5138;BME280;53959;53.626;11.410;2023-04-06T00:12:48;101443.28;;;1.92;76.44
5138;BME280;53959;53.626;11.410;2023-04-06T00:15:13;101444.56;;;1.72;77.41
5138;BME280;53959;53.626;11.410;2023-04-06T00:17:39;101443.22;;;1.89;76.30
5138;BME280;53959;53.626;11.410;2023-04-06T00:20:04;101441.41;;;1.87;76.65
5138;BME280;53959;53.626;11.410;2023-04-06T00:22:30;101438.78;;;1.87;76.63
5138;BME280;53959;53.626;11.410;2023-04-06T00:24:55;101437.81;;;1.83;77.28
5138;BME280;53959;53.626;11.410;2023-04-06T00:27:20;101437.75;;;1.80;77.77
5138;BME280;53959;53.626;11.410;2023-04-06T00:29:46;101440.19;;;1.73;77.98
5138;BME280;53959;53.626;11.410;2023-04-06T00:32:11;101435.81;;;1.70;78.38
5138;BME280;53959;53.626;11.410;2023-04-06T00:34:36;101433.22;;;1.72;78.11
5138;BME280;53959;53.626;11.410;2023-04-06T00:37:02;101436.81;;;1.77;78.22
5138;BME280;53959;53.626;11.410;2023-04-06T00:39:27;101439.22;;;1.66;78.11
5138;BME280;53959;53.626;11.410;2023-04-06T00:41:53;101431.69;;;1.81;77.71
5138;BME280;53959;53.626;11.410;2023-04-06T00:44:19;101431.22;;;2.01;77.14
5138;BME280;53959;53.626;11.410;2023-04-06T00:46:45;101433.88;;;2.02;76.46
5138;BME280;53959;53.626;11.410;2023-04-06T00:49:10;101433.44;;;1.81;76.81
5138;BME280;53959;53.626;11.410;2023-04-06T00:51:36;101431.38;;;1.69;77.39
5138;BME280;53959;53.626;11.410;2023-04-06T00:54:01;101434.91;;;1.69;77.17
5138;BME280;53959;53.626;11.410;2023-04-06T00:56:29;101422.53;;;1.62;77.55
5138;BME280;53959;53.626;11.410;2023-04-06T00:58:55;101429.56;;;1.65;77.68
5138;BME280;53959;53.626;11.410;2023-04-06T01:01:20;101434.00;;;1.69;77.33
5138;BME280;53959;53.626;11.410;2023-04-06T01:03:48;101427.81;;;1.65;77.16
5138;BME280;53959;53.626;11.410;2023-04-06T01:06:16;101431.09;;;1.55;77.65
5138;BME280;53959;53.626;11.410;2023-04-06T01:08:44;101429.19;;;1.48;77.71
5138;BME280;53959;53.626;11.410;2023-04-06T01:11:17;101437.94;;;1.50;77.66
5138;BME280;53959;53.626;11.410;2023-04-06T01:13:43;101434.63;;;1.57;77.30
5138;BME280;53959;53.626;11.410;2023-04-06T01:16:17;101415.28;;;1.91;76.15
5138;BME280;53959;53.626;11.410;2023-04-06T01:18:54;101427.34;;;1.83;76.25
5138;BME280;53959;53.626;11.410;2023-04-06T01:21:24;101423.06;;;1.87;76.33
5138;BME280;53959;53.626;11.410;2023-04-06T01:24:02;101416.47;;;2.04;76.54
5138;BME280;53959;53.626;11.410;2023-04-06T01:26:38;101425.03;;;1.97;77.79
5138;BME280;53959;53.626;11.410;2023-04-06T01:29:06;101421.63;;;2.01;77.22
5138;BME280;53959;53.626;11.410;2023-04-06T01:31:31;101421.81;;;2.10;77.43
5138;BME280;53959;53.626;11.410;2023-04-06T01:33:57;101431.69;;;2.22;76.56
5138;BME280;53959;53.626;11.410;2023-04-06T01:36:24;101431.41;;;2.08;77.49
5138;BME280;53959;53.626;11.410;2023-04-06T01:39:10;101434.19;;;2.17;77.82
5138;BME280;53959;53.626;11.410;2023-04-06T01:41:38;101427.84;;;2.06;78.20
5138;BME280;53959;53.626;11.410;2023-04-06T01:44:03;101425.38;;;2.14;78.77
5138;BME280;53959;53.626;11.410;2023-04-06T01:46:30;101429.63;;;2.07;78.69
5138;BME280;53959;53.626;11.410;2023-04-06T01:48:57;101425.38;;;2.12;79.38
5138;BME280;53959;53.626;11.410;2023-04-06T01:51:31;101421.81;;;2.10;78.74
5138;BME280;53959;53.626;11.410;2023-04-06T01:53:59;101423.28;;;1.96;79.06
5138;BME280;53959;53.626;11.410;2023-04-06T01:57:00;101419.94;;;2.03;78.83
5138;BME280;53959;53.626;11.410;2023-04-06T01:59:58;101423.28;;;1.96;79.36
5138;BME280;53959;53.626;11.410;2023-04-06T02:02:38;101423.13;;;1.88;79.60
5138;BME280;53959;53.626;11.410;2023-04-06T02:05:09;101428.72;;;2.07;79.66
5138;BME280;53959;53.626;11.410;2023-04-06T02:07:35;101419.03;;;2.03;79.28
5138;BME280;53959;53.626;11.410;2023-04-06T02:10:00;101423.22;;;1.93;79.68
5138;BME280;53959;53.626;11.410;2023-04-06T02:12:34;101426.88;;;2.01;79.00
5138;BME280;53959;53.626;11.410;2023-04-06T02:15:00;101418.28;;;2.08;78.90
5138;BME280;53959;53.626;11.410;2023-04-06T02:17:25;101423.75;;;1.78;78.39
5138;BME280;53959;53.626;11.410;2023-04-06T02:19:50;101417.81;;;1.85;80.04
5138;BME280;53959;53.626;11.410;2023-04-06T02:22:16;101425.75;;;1.88;80.91
5138;BME280;53959;53.626;11.410;2023-04-06T02:24:42;101420.94;;;2.10;80.77
5138;BME280;53959;53.626;11.410;2023-04-06T02:27:07;101419.09;;;2.04;81.17
5138;BME280;53959;53.626;11.410;2023-04-06T02:29:32;101420.59;;;1.93;80.75
5138;BME280;53959;53.626;11.410;2023-04-06T02:31:58;101418.91;;;1.97;80.51
5138;BME280;53959;53.626;11.410;2023-04-06T02:34:24;101408.47;;;1.98;80.23
5138;BME280;53959;53.626;11.410;2023-04-06T02:36:51;101420.69;;;1.99;80.09
5138;BME280;53959;53.626;11.410;2023-04-06T02:39:17;101426.09;;;2.07;80.33
5138;BME280;53959;53.626;11.410;2023-04-06T02:41:42;101420.19;;;2.15;80.13
5138;BME280;53959;53.626;11.410;2023-04-06T02:44:08;101414.81;;;2.09;80.39
5138;BME280;53959;53.626;11.410;2023-04-06T02:46:38;101419.00;;;2.00;80.75
5138;BME280;53959;53.626;11.410;2023-04-06T02:49:04;101423.28;;;1.96;80.92
5138;BME280;53959;53.626;11.410;2023-04-06T02:51:32;101418.84;;;1.93;81.07
5138;BME280;53959;53.626;11.410;2023-04-06T02:54:09;101420.53;;;1.90;80.18
5138;BME280;53959;53.626;11.410;2023-04-06T02:56:35;101423.66;;;1.74;80.27
5138;BME280;53959;53.626;11.410;2023-04-06T02:59:00;101427.88;;;1.68;80.88
5138;BME280;53959;53.626;11.410;2023-04-06T03:01:29;101426.13;;;1.67;80.61
5138;BME280;53959;53.626;11.410;2023-04-06T03:03:58;101425.53;;;1.79;81.04
5138;BME280;53959;53.626;11.410;2023-04-06T03:06:26;101421.81;;;1.69;80.84
5138;BME280;53959;53.626;11.410;2023-04-06T03:08:55;101428.56;;;1.60;81.58
5138;BME280;53959;53.626;11.410;2023-04-06T03:11:21;101428.94;;;1.77;80.91
5138;BME280;53959;53.626;11.410;2023-04-06T03:13:48;101421.22;;;1.83;80.53
5138;BME280;53959;53.626;11.410;2023-04-06T03:16:14;101432.69;;;1.88;80.48
5138;BME280;53959;53.626;11.410;2023-04-06T03:18:40;101424.00;;;1.89;81.34
5138;BME280;53959;53.626;11.410;2023-04-06T03:21:05;101433.63;;;1.90;81.28
5138;BME280;53959;53.626;11.410;2023-04-06T03:23:45;101427.56;;;1.92;80.87
5138;BME280;53959;53.626;11.410;2023-04-06T03:26:10;101424.25;;;2.01;80.99
5138;BME280;53959;53.626;11.410;2023-04-06T03:28:36;101423.38;;;2.01;80.68
5138;BME280;53959;53.626;11.410;2023-04-06T03:31:04;101420.13;;;2.12;81.08
5138;BME280;53959;53.626;11.410;2023-04-06T03:34:04;101418.06;;;1.99;80.80
5138;BME280;53959;53.626;11.410;2023-04-06T03:36:34;101421.56;;;1.98;80.46
5138;BME280;53959;53.626;11.410;2023-04-06T03:39:01;101428.19;;;1.81;80.64
5138;BME280;53959;53.626;11.410;2023-04-06T03:41:29;101429.31;;;1.92;80.42
5138;BME280;53959;53.626;11.410;2023-04-06T03:44:00;101433.38;;;1.79;80.24
5138;BME280;53959;53.626;11.410;2023-04-06T03:46:26;101435.25;;;1.85;79.78
5138;BME280;53959;53.626;11.410;2023-04-06T03:48:54;101436.25;;;1.91;79.97
5138;BME280;53959;53.626;11.410;2023-04-06T03:51:21;101434.41;;;1.86;79.60
5138;BME280;53959;53.626;11.410;2023-04-06T03:53:47;101440.28;;;1.76;79.93
5138;BME280;53959;53.626;11.410;2023-04-06T03:56:12;101440.34;;;1.79;79.88
5138;BME280;53959;53.626;11.410;2023-04-06T03:58:37;101438.41;;;1.70;80.52
5138;BME280;53959;53.626;11.410;2023-04-06T04:01:03;101436.81;;;1.77;80.25
5138;BME280;53959;53.626;11.410;2023-04-06T04:03:28;101434.91;;;1.69;80.59
5138;BME280;53959;53.626;11.410;2023-04-06T04:05:54;101435.91;;;1.75;80.41
5138;BME280;53959;53.626;11.410;2023-04-06T04:08:24;101434.31;;;1.81;80.63
5138;BME280;53959;53.626;11.410;2023-04-06T04:10:50;101432.50;;;1.79;80.40
5138;BME280;53959;53.626;11.410;2023-04-06T04:13:15;101437.03;;;1.86;80.36
5138;BME280;53959;53.626;11.410;2023-04-06T04:15:44;101432.59;;;1.83;80.62
5138;BME280;53959;53.626;11.410;2023-04-06T04:18:09;101433.38;;;1.79;80.72
5138;BME280;53959;53.626;11.410;2023-04-06T04:20:34;101440.19;;;1.73;80.37
5138;BME280;53959;53.626;11.410;2023-04-06T04:23:00;101438.41;;;1.70;80.62
5138;BME280;53959;53.626;11.410;2023-04-06T04:25:29;101437.91;;;1.86;80.66
5138;BME280;53959;53.626;11.410;2023-04-06T04:27:54;101440.16;;;1.69;80.99
5138;BME280;53959;53.626;11.410;2023-04-06T04:30:21;101434.41;;;1.86;80.17
5138;BME280;53959;53.626;11.410;2023-04-06T04:32:46;101445.59;;;1.79;80.08
5138;BME280;53959;53.626;11.410;2023-04-06T04:35:12;101449.69;;;1.66;80.20
5138;BME280;53959;53.626;11.410;2023-04-06T04:37:41;101446.81;;;1.55;80.67
5138;BME280;53959;53.626;11.410;2023-04-06T04:40:08;101449.53;;;1.60;80.48
5138;BME280;53959;53.626;11.410;2023-04-06T04:42:43;101436.75;;;1.74;80.35
5138;BME280;53959;53.626;11.410;2023-04-06T04:45:14;101440.00;;;1.62;80.35
5138;BME280;53959;53.626;11.410;2023-04-06T04:47:40;101445.09;;;1.57;80.71
5138;BME280;53959;53.626;11.410;2023-04-06T04:50:07;101443.41;;;1.59;80.60
5138;BME280;53959;53.626;11.410;2023-04-06T04:52:37;101440.09;;;1.66;80.21
5138;BME280;53959;53.626;11.410;2023-04-06T04:55:23;101438.06;;;1.55;80.37
5138;BME280;53959;53.626;11.410;2023-04-06T04:57:52;101452.88;;;1.54;79.95
5138;BME280;53959;53.626;11.410;2023-04-06T05:00:22;101453.81;;;1.56;80.47
5138;BME280;53959;53.626;11.410;2023-04-06T05:02:50;101457.38;;;1.58;80.46
5138;BME280;53959;53.626;11.410;2023-04-06T05:05:19;101446.94;;;1.61;80.93
5138;BME280;53959;53.626;11.410;2023-04-06T05:07:45;101453.97;;;1.62;80.33
5138;BME280;53959;53.626;11.410;2023-04-06T05:10:19;101455.78;;;1.66;79.92
5138;BME280;53959;53.626;11.410;2023-04-06T05:12:52;101451.78;;;1.82;79.08
5138;BME280;53959;53.626;11.410;2023-04-06T05:15:17;101456.94;;;1.78;78.72
5138;BME280;53959;53.626;11.410;2023-04-06T05:17:43;101448.03;;;1.71;78.38
5138;BME280;53959;53.626;11.410;2023-04-06T05:20:12;101454.91;;;1.66;79.00
5138;BME280;53959;53.626;11.410;2023-04-06T05:22:44;101462.25;;;1.82;78.49
5138;BME280;53959;53.626;11.410;2023-04-06T05:25:10;101464.09;;;1.85;77.91
5138;BME280;53959;53.626;11.410;2023-04-06T05:27:37;101458.63;;;1.76;78.04
5138;BME280;53959;53.626;11.410;2023-04-06T05:30:07;101454.75;;;1.99;77.82
5138;BME280;53959;53.626;11.410;2023-04-06T05:32:38;101457.09;;;1.85;77.34
5138;BME280;53959;53.626;11.410;2023-04-06T05:35:05;101462.00;;;1.70;77.97
5138;BME280;53959;53.626;11.410;2023-04-06T05:37:30;101462.16;;;1.78;77.41
5138;BME280;53959;53.626;11.410;2023-04-06T05:39:58;101463.94;;;1.80;76.54
5138;BME280;53959;53.626;11.410;2023-04-06T05:42:23;101457.00;;;1.81;76.63
5138;BME280;53959;53.626;11.410;2023-04-06T05:44:57;101464.78;;;1.78;76.90
5138;BME280;53959;53.626;11.410;2023-04-06T05:47:23;101464.28;;;1.95;76.77
5138;BME280;53959;53.626;11.410;2023-04-06T05:49:56;101464.59;;;2.09;76.20
5138;BME280;53959;53.626;11.410;2023-04-06T05:52:30;101471.50;;;2.06;75.85
5138;BME280;53959;53.626;11.410;2023-04-06T05:54:55;101471.59;;;2.09;75.84
5138;BME280;53959;53.626;11.410;2023-04-06T05:57:23;101471.59;;;2.10;75.61
5138;BME280;53959;53.626;11.410;2023-04-06T05:59:49;101469.91;;;2.12;75.61
5138;BME280;53959;53.626;11.410;2023-04-06T06:02:14;101470.88;;;2.17;75.35
5138;BME280;53959;53.626;11.410;2023-04-06T06:04:43;101469.94;;;2.14;74.73
5138;BME280;53959;53.626;11.410;2023-04-06T06:07:08;101465.00;;;2.28;74.43
5138;BME280;53959;53.626;11.410;2023-04-06T06:09:40;101470.94;;;2.19;75.17
5138;BME280;53959;53.626;11.410;2023-04-06T06:12:15;101473.75;;;2.28;74.03
5138;BME280;53959;53.626;11.410;2023-04-06T06:14:41;101466.69;;;2.26;73.75
5138;BME280;53959;53.626;11.410;2023-04-06T06:17:06;101475.63;;;2.34;72.97
5138;BME280;53959;53.626;11.410;2023-04-06T06:19:32;101477.78;;;2.55;72.72
5138;BME280;53959;53.626;11.410;2023-04-06T06:22:01;101476.66;;;2.42;72.56
5138;BME280;53959;53.626;11.410;2023-04-06T06:24:28;101476.75;;;2.47;70.90
5138;BME280;53959;53.626;11.410;2023-04-06T06:26:53;101486.41;;;2.49;70.45
5138;BME280;53959;53.626;11.410;2023-04-06T06:29:22;101489.13;;;2.52;69.92
5138;BME280;53959;53.626;11.410;2023-04-06T06:31:48;101481.97;;;2.45;69.87
5138;BME280;53959;53.626;11.410;2023-04-06T06:34:14;101479.56;;;2.56;68.56
5138;BME280;53959;53.626;11.410;2023-04-06T06:36:41;101492.88;;;2.66;67.56
5138;BME280;53959;53.626;11.410;2023-04-06T06:39:08;101490.53;;;2.82;66.40
5138;BME280;53959;53.626;11.410;2023-04-06T06:41:33;101488.72;;;2.78;66.23
5138;BME280;53959;53.626;11.410;2023-04-06T06:43:59;101492.19;;;2.75;64.49
5138;BME280;53959;53.626;11.410;2023-04-06T06:46:25;101492.41;;;2.86;64.18
5138;BME280;53959;53.626;11.410;2023-04-06T06:48:50;101491.53;;;2.87;63.72
5138;BME280;53959;53.626;11.410;2023-04-06T06:51:15;101488.81;;;2.82;64.21
5138;BME280;53959;53.626;11.410;2023-04-06T06:53:41;101483.69;;;2.88;63.54
5138;BME280;53959;53.626;11.410;2023-04-06T06:56:06;101490.09;;;3.04;61.90
5138;BME280;53959;53.626;11.410;2023-04-06T06:58:31;101489.47;;;3.17;62.04
5138;BME280;53959;53.626;11.410;2023-04-06T07:00:58;101487.09;;;3.33;62.39
5138;BME280;53959;53.626;11.410;2023-04-06T07:03:25;101485.41;;;3.35;61.57
5138;BME280;53959;53.626;11.410;2023-04-06T07:05:50;101491.72;;;3.48;61.72
5138;BME280;53959;53.626;11.410;2023-04-06T07:08:23;101482.84;;;3.39;60.67
5138;BME280;53959;53.626;11.410;2023-04-06T07:10:50;101489.09;;;3.49;62.00
5138;BME280;53959;53.626;11.410;2023-04-06T07:13:18;101486.75;;;3.66;59.88
5138;BME280;53959;53.626;11.410;2023-04-06T07:15:48;101487.78;;;3.76;59.33
5138;BME280;53959;53.626;11.410;2023-04-06T07:18:14;101490.81;;;4.03;58.71
5138;BME280;53959;53.626;11.410;2023-04-06T07:20:40;101489.19;;;4.11;58.38
5138;BME280;53959;53.626;11.410;2023-04-06T07:23:05;101491.81;;;4.11;58.32
5138;BME280;53959;53.626;11.410;2023-04-06T07:25:31;101485.81;;;4.22;57.49
5138;BME280;53959;53.626;11.410;2023-04-06T07:27:56;101487.72;;;4.35;57.43
5138;BME280;53959;53.626;11.410;2023-04-06T07:30:23;101487.03;;;4.50;57.21
5138;BME280;53959;53.626;11.410;2023-04-06T07:32:51;101478.38;;;4.57;55.94
5138;BME280;53959;53.626;11.410;2023-04-06T07:35:17;101474.91;;;4.62;56.40
5138;BME280;53959;53.626;11.410;2023-04-06T07:37:42;101473.47;;;4.89;56.21
5138;BME280;53959;53.626;11.410;2023-04-06T07:40:08;101474.47;;;5.03;54.90
5138;BME280;53959;53.626;11.410;2023-04-06T07:42:34;101481.56;;;5.10;54.88
5138;BME280;53959;53.626;11.410;2023-04-06T07:45:00;101473.94;;;5.38;54.06
5138;BME280;53959;53.626;11.410;2023-04-06T07:47:25;101478.41;;;5.51;54.03
5138;BME280;53959;53.626;11.410;2023-04-06T07:49:51;101471.50;;;5.67;53.40
5138;BME280;53959;53.626;11.410;2023-04-06T07:52:16;101476.91;;;5.85;52.90
5138;BME280;53959;53.626;11.410;2023-04-06T07:54:42;101477.06;;;6.07;51.03
5138;BME280;53959;53.626;11.410;2023-04-06T07:57:08;101471.91;;;6.28;51.29
5138;BME280;53959;53.626;11.410;2023-04-06T07:59:33;101473.69;;;6.39;49.71
5138;BME280;53959;53.626;11.410;2023-04-06T08:01:58;101478.31;;;7.12;50.10
5138;BME280;53959;53.626;11.410;2023-04-06T08:04:24;101476.13;;;10.05;46.90
5138;BME280;53959;53.626;11.410;2023-04-06T08:06:49;101477.44;;;11.65;42.51
5138;BME280;53959;53.626;11.410;2023-04-06T08:09:14;101479.44;;;14.00;38.00
5138;BME280;53959;53.626;11.410;2023-04-06T08:11:40;101480.38;;;13.98;37.11
5138;BME280;53959;53.626;11.410;2023-04-06T08:14:05;101477.16;;;14.80;34.87
5138;BME280;53959;53.626;11.410;2023-04-06T08:16:31;101481.97;;;14.36;35.03
5138;BME280;53959;53.626;11.410;2023-04-06T08:18:56;101488.59;;;15.69;32.95
5138;BME280;53959;53.626;11.410;2023-04-06T08:21:22;101482.47;;;15.64;32.69
5138;BME280;53959;53.626;11.410;2023-04-06T08:23:47;101486.59;;;14.93;32.16
5138;BME280;53959;53.626;11.410;2023-04-06T08:26:13;101477.19;;;15.36;31.09
5138;BME280;53959;53.626;11.410;2023-04-06T08:28:38;101474.44;;;15.38;31.51
5138;BME280;53959;53.626;11.410;2023-04-06T08:31:07;101470.94;;;14.79;31.56
5138;BME280;53959;53.626;11.410;2023-04-06T08:33:33;101472.91;;;14.11;31.93
5138;BME280;53959;53.626;11.410;2023-04-06T08:36:11;101468.31;;;14.16;31.29
5138;BME280;53959;53.626;11.410;2023-04-06T08:38:37;101472.44;;;15.44;30.08
5138;BME280;53959;53.626;11.410;2023-04-06T08:41:12;101477.00;;;15.42;29.43
5138;BME280;53959;53.626;11.410;2023-04-06T08:46:12;101471.78;;;15.91;30.03
5138;BME280;53959;53.626;11.410;2023-04-06T08:48:42;101467.59;;;14.42;30.28
5138;BME280;53959;53.626;11.410;2023-04-06T08:51:08;101463.84;;;13.83;31.35
5138;BME280;53959;53.626;11.410;2023-04-06T08:53:34;101460.94;;;15.14;30.22
5138;BME280;53959;53.626;11.410;2023-04-06T08:56:00;101468.03;;;14.87;30.49
5138;BME280;53959;53.626;11.410;2023-04-06T08:58:28;101461.59;;;14.33;30.72
5138;BME280;53959;53.626;11.410;2023-04-06T09:00:55;101460.44;;;12.22;33.10
5138;BME280;53959;53.626;11.410;2023-04-06T09:03:21;101457.38;;;10.19;36.45
5138;BME280;53959;53.626;11.410;2023-04-06T09:05:47;101462.72;;;9.22;38.10
5138;BME280;53959;53.626;11.410;2023-04-06T09:08:13;101459.38;;;8.91;38.02
5138;BME280;53959;53.626;11.410;2023-04-06T09:10:40;101456.69;;;8.98;37.97
5138;BME280;53959;53.626;11.410;2023-04-06T09:13:07;101458.44;;;9.04;36.86
5138;BME280;53959;53.626;11.410;2023-04-06T09:15:33;101455.84;;;8.96;37.80
5138;BME280;53959;53.626;11.410;2023-04-06T09:17:58;101454.97;;;8.93;38.48
5138;BME280;53959;53.626;11.410;2023-04-06T09:20:24;101456.84;;;8.74;38.10
5138;BME280;53959;53.626;11.410;2023-04-06T09:22:56;101453.41;;;8.60;38.76
5138;BME280;53959;53.626;11.410;2023-04-06T09:25:23;101458.75;;;8.44;37.88
5138;BME280;53959;53.626;11.410;2023-04-06T09:28:04;101456.03;;;8.60;37.94
5138;BME280;53959;53.626;11.410;2023-04-06T09:30:32;101454.00;;;9.05;38.67
5138;BME280;53959;53.626;11.410;2023-04-06T09:32:57;101452.19;;;9.13;38.46
5138;BME280;53959;53.626;11.410;2023-04-06T09:35:24;101444.41;;;8.84;39.08
5138;BME280;53959;53.626;11.410;2023-04-06T09:37:52;101442.56;;;9.01;38.52
5138;BME280;53959;53.626;11.410;2023-04-06T09:40:18;101448.59;;;9.20;38.53
5138;BME280;53959;53.626;11.410;2023-04-06T09:42:48;101446.09;;;9.03;38.43
5138;BME280;53959;53.626;11.410;2023-04-06T09:45:17;101438.06;;;9.12;38.58
5138;BME280;53959;53.626;11.410;2023-04-06T09:47:44;101440.66;;;9.20;39.21
5138;BME280;53959;53.626;11.410;2023-04-06T09:50:11;101433.75;;;8.97;36.79
5138;BME280;53959;53.626;11.410;2023-04-06T09:52:50;101434.56;;;9.10;35.81
5138;BME280;53959;53.626;11.410;2023-04-06T09:55:35;101430.06;;;9.18;35.92
5138;BME280;53959;53.626;11.410;2023-04-06T09:58:05;101433.69;;;9.05;35.96
5138;BME280;53959;53.626;11.410;2023-04-06T10:00:34;101436.22;;;9.22;36.27
5138;BME280;53959;53.626;11.410;2023-04-06T10:05:57;101430.00;;;9.26;36.44
5138;BME280;53959;53.626;11.410;2023-04-06T10:08:27;101422.88;;;9.31;36.55
5138;BME280;53959;53.626;11.410;2023-04-06T10:10:54;101433.44;;;9.36;36.31
5138;BME280;53959;53.626;11.410;2023-04-06T10:13:20;101430.78;;;9.37;36.22
5138;BME280;53959;53.626;11.410;2023-04-06T10:15:46;101426.44;;;9.30;36.58
5138;BME280;53959;53.626;11.410;2023-04-06T10:18:12;101429.84;;;9.43;36.74
5138;BME280;53959;53.626;11.410;2023-04-06T10:20:50;101428.00;;;9.53;35.02
5138;BME280;53959;53.626;11.410;2023-04-06T10:23:26;101430.66;;;9.53;34.79
5138;BME280;53959;53.626;11.410;2023-04-06T10:25:57;101427.84;;;9.71;35.06
5138;BME280;53959;53.626;11.410;2023-04-06T10:28:23;101432.22;;;9.72;35.79
5138;BME280;53959;53.626;11.410;2023-04-06T10:30:48;101434.09;;;9.64;34.82
5138;BME280;53959;53.626;11.410;2023-04-06T10:33:19;101420.59;;;9.87;36.06
5138;BME280;53959;53.626;11.410;2023-04-06T10:35:45;101424.16;;;9.81;35.39
5138;BME280;53959;53.626;11.410;2023-04-06T10:38:12;101439.22;;;9.78;34.48
5138;BME280;53959;53.626;11.410;2023-04-06T10:40:40;101426.16;;;9.61;35.50
5138;BME280;53959;53.626;11.410;2023-04-06T10:43:26;101436.59;;;9.78;34.89
5138;BME280;53959;53.626;11.410;2023-04-06T10:46:00;101422.53;;;9.71;35.22
5138;BME280;53959;53.626;11.410;2023-04-06T10:48:36;101425.91;;;9.87;35.37
5138;BME280;53959;53.626;11.410;2023-04-06T10:51:07;101433.72;;;9.99;35.30
5138;BME280;53959;53.626;11.410;2023-04-06T10:53:33;101420.63;;;9.82;34.86
5138;BME280;53959;53.626;11.410;2023-04-06T10:55:59;101420.28;;;10.13;35.37
5138;BME280;53959;53.626;11.410;2023-04-06T10:58:25;101412.59;;;9.90;34.79
5138;BME280;53959;53.626;11.410;2023-04-06T11:00:52;101419.81;;;9.76;34.97
5138;BME280;53959;53.626;11.410;2023-04-06T11:03:17;101406.59;;;9.69;34.95
5138;BME280;53959;53.626;11.410;2023-04-06T11:05:44;101416.56;;;10.31;35.15
5138;BME280;53959;53.626;11.410;2023-04-06T11:08:21;101408.63;;;10.25;34.78
5138;BME280;53959;53.626;11.410;2023-04-06T11:10:46;101407.69;;;10.30;35.46
5138;BME280;53959;53.626;11.410;2023-04-06T11:13:12;101414.75;;;10.33;34.48
5138;BME280;53959;53.626;11.410;2023-04-06T11:15:37;101415.66;;;10.30;34.69
5138;BME280;53959;53.626;11.410;2023-04-06T11:18:04;101411.44;;;10.11;35.65
5138;BME280;53959;53.626;11.410;2023-04-06T11:20:30;101410.41;;;10.26;35.54
5138;BME280;53959;53.626;11.410;2023-04-06T11:22:55;101419.88;;;10.50;35.73
5138;BME280;53959;53.626;11.410;2023-04-06T11:25:20;101404.06;;;10.37;35.49
5138;BME280;53959;53.626;11.410;2023-04-06T11:27:46;101403.75;;;10.60;35.29
5138;BME280;53959;53.626;11.410;2023-04-06T11:30:13;101405.69;;;10.49;35.17
5138;BME280;53959;53.626;11.410;2023-04-06T11:32:43;101401.91;;;10.67;35.07
5138;BME280;53959;53.626;11.410;2023-04-06T11:35:30;101397.53;;;10.64;35.22
5138;BME280;53959;53.626;11.410;2023-04-06T11:37:56;101405.38;;;10.72;35.39
5138;BME280;53959;53.626;11.410;2023-04-06T11:40:22;101408.31;;;10.52;34.78
5138;BME280;53959;53.626;11.410;2023-04-06T11:42:53;101390.59;;;10.53;34.93
5138;BME280;53959;53.626;11.410;2023-04-06T11:45:18;101396.69;;;10.59;34.97
5138;BME280;53959;53.626;11.410;2023-04-06T11:47:44;101397.00;;;10.36;35.21
5138;BME280;53959;53.626;11.410;2023-04-06T11:50:12;101395.59;;;10.76;34.74
5138;BME280;53959;53.626;11.410;2023-04-06T11:52:39;101392.66;;;10.92;34.36
5138;BME280;53959;53.626;11.410;2023-04-06T11:55:15;101384.97;;;10.74;34.36
5138;BME280;53959;53.626;11.410;2023-04-06T11:57:42;101398.72;;;11.02;34.35
5138;BME280;53959;53.626;11.410;2023-04-06T12:00:08;101385.56;;;10.94;34.64
5138;BME280;53959;53.626;11.410;2023-04-06T12:02:35;101368.81;;;10.86;34.69
5138;BME280;53959;53.626;11.410;2023-04-06T12:05:02;101385.34;;;11.07;34.38
5138;BME280;53959;53.626;11.410;2023-04-06T12:07:31;101375.09;;;10.82;34.42
5138;BME280;53959;53.626;11.410;2023-04-06T12:09:56;101381.16;;;10.92;33.84
5138;BME280;53959;53.626;11.410;2023-04-06T12:12:22;101382.97;;;10.88;33.41
5138;BME280;53959;53.626;11.410;2023-04-06T12:14:47;101374.69;;;11.10;33.74
5138;BME280;53959;53.626;11.410;2023-04-06T12:17:12;101363.09;;;11.14;34.14
5138;BME280;53959;53.626;11.410;2023-04-06T12:19:38;101370.38;;;11.52;33.87
5138;BME280;53959;53.626;11.410;2023-04-06T12:22:03;101361.56;;;11.49;34.33
5138;BME280;53959;53.626;11.410;2023-04-06T12:24:29;101365.63;;;11.20;33.87
5138;BME280;53959;53.626;11.410;2023-04-06T12:26:54;101365.16;;;11.46;34.05
5138;BME280;53959;53.626;11.410;2023-04-06T12:29:20;101365.88;;;11.56;33.79
5138;BME280;53959;53.626;11.410;2023-04-06T12:31:45;101361.53;;;11.52;33.77
5138;BME280;53959;53.626;11.410;2023-04-06T12:34:11;101366.06;;;11.45;33.64
5138;BME280;53959;53.626;11.410;2023-04-06T12:36:38;101368.34;;;11.65;34.22
5138;BME280;53959;53.626;11.410;2023-04-06T12:39:04;101364.91;;;11.60;33.43
5138;BME280;53959;53.626;11.410;2023-04-06T12:41:29;101365.88;;;11.54;33.72
5138;BME280;53959;53.626;11.410;2023-04-06T12:43:55;101362.97;;;11.68;33.33
5138;BME280;53959;53.626;11.410;2023-04-06T12:46:21;101347.38;;;11.96;33.05
5138;BME280;53959;53.626;11.410;2023-04-06T12:48:46;101358.25;;;11.82;32.97
5138;BME280;53959;53.626;11.410;2023-04-06T12:51:13;101351.19;;;12.26;32.47
5138;BME280;53959;53.626;11.410;2023-04-06T12:53:38;101346.47;;;11.96;33.25
5138;BME280;53959;53.626;11.410;2023-04-06T12:56:12;101351.53;;;12.50;33.11
5138;BME280;53959;53.626;11.410;2023-04-06T12:58:37;101338.06;;;12.56;32.63
5138;BME280;53959;53.626;11.410;2023-04-06T13:01:05;101337.03;;;12.99;31.55
5138;BME280;53959;53.626;11.410;2023-04-06T13:03:31;101345.75;;;14.05;30.57
5138;BME280;53959;53.626;11.410;2023-04-06T13:05:59;101341.31;;;14.91;30.23